Time;durP1;ratioP1;P1;durP2;ratioP2;P2;SDS_P1;SDS_P2;PMS_P1;PMS_P2;Temp;Humidity;BMP_temperature;BMP_pressure;BME280_temperature;BME280_humidity;BME280_pressure;Samples;Min_cycle;Max_cycle;Signal;HPM_P1;HPM_P2
2022/05/31 00:01:19;;;;;;;8.65;1.63;;;25.30;46.70;;;;;;4099641;28;20053;-38
2022/05/31 00:03:21;;;;;;;6.17;1.50;;;25.50;46.60;;;;;;4101892;28;20053;-43
2022/05/31 00:05:25;;;;;;;7.07;0.95;;;25.70;46.40;;;;;;4109476;28;20938;-42
2022/05/31 00:07:27;;;;;;;5.38;1.15;;;25.80;45.90;;;;;;4104648;28;20313;-40
2022/05/31 00:09:29;;;;;;;4.28;0.70;;;25.90;45.40;;;;;;4103520;28;20107;-43
2022/05/31 00:11:32;;;;;;;3.83;0.70;;;25.90;45.70;;;;;;4104308;28;20790;-41
2022/05/31 00:13:35;;;;;;;1.13;0.70;;;25.70;46.30;;;;;;4100242;28;20085;-42
2022/05/31 00:15:37;;;;;;;1.23;0.57;;;25.20;46.70;;;;;;4105155;28;20083;-42
2022/05/31 00:17:40;;;;;;;2.92;0.90;;;24.90;48.20;;;;;;4105538;28;20057;-39
2022/05/31 00:19:42;;;;;;;1.92;0.63;;;24.60;49.00;;;;;;4113936;28;20041;-38
2022/05/31 00:21:53;;;;;;;7.95;0.95;;;24.20;49.20;;;;;;4107834;28;20747;-43
2022/05/31 00:23:55;;;;;;;9.10;1.10;;;23.90;49.70;;;;;;4107633;28;22086;-40
2022/05/31 00:25:57;;;;;;;2.20;0.60;;;23.70;49.90;;;;;;4107213;28;20053;-38
2022/05/31 00:27:59;;;;;;;1.45;0.88;;;23.40;50.80;;;;;;4113204;28;20498;-39
2022/05/31 00:30:02;;;;;;;1.00;0.60;;;23.20;51.00;;;;;;4097933;28;20840;-41
2022/05/31 00:32:08;;;;;;;0.88;0.70;;;23.00;51.10;;;;;;4105934;28;20679;-40
2022/05/31 00:34:11;;;;;;;4.38;1.05;;;22.90;51.50;;;;;;4106066;28;20060;-39
2022/05/31 00:36:13;;;;;;;2.97;0.90;;;23.00;51.30;;;;;;4112919;28;20071;-38
2022/05/31 00:38:17;;;;;;;0.57;0.40;;;23.40;50.50;;;;;;4107044;28;21152;-40
2022/05/31 00:40:21;;;;;;;1.70;0.43;;;23.90;49.60;;;;;;4106444;28;20093;-41
2022/05/31 00:42:23;;;;;;;1.10;0.50;;;24.20;49.10;;;;;;4106897;28;20061;-39
2022/05/31 00:44:27;;;;;;;0.60;0.40;;;24.10;49.10;;;;;;4113887;28;20069;-45
2022/05/31 00:46:48;;;;;;;2.10;0.60;;;23.90;49.30;;;;;;4105034;28;20061;-41
2022/05/31 00:49:00;;;;;;;1.10;0.30;;;23.60;49.70;;;;;;4111670;28;20065;-44
2022/05/31 00:51:10;;;;;;;0.40;0.40;;;23.30;50.10;;;;;;4112689;28;20502;-39
2022/05/31 00:53:25;;;;;;;0.73;0.40;;;23.10;50.30;;;;;;4111705;28;20578;-39
2022/05/31 00:55:36;;;;;;;0.80;0.50;;;22.90;50.60;;;;;;4115064;28;20140;-45
2022/05/31 00:57:41;;;;;;;0.43;0.40;;;22.80;50.90;;;;;;4111189;28;20599;-40
2022/05/31 00:59:51;;;;;;;2.50;0.40;;;22.60;51.10;;;;;;4106180;28;20995;-39
2022/05/31 01:01:56;;;;;;;2.83;0.65;;;22.40;51.30;;;;;;4108073;28;20152;-39
2022/05/31 01:03:59;;;;;;;1.13;0.30;;;22.30;51.50;;;;;;4107951;28;20154;-40
2022/05/31 01:06:01;;;;;;;0.55;0.38;;;22.20;51.60;;;;;;4112890;28;20065;-40
2022/05/31 01:08:04;;;;;;;0.30;0.30;;;22.10;52.40;;;;;;4112024;28;20566;-39
2022/05/31 01:10:08;;;;;;;0.45;0.40;;;22.00;51.80;;;;;;4107025;28;20302;-40
2022/05/31 01:12:12;;;;;;;1.95;0.60;;;21.90;52.00;;;;;;4105951;28;20526;-40
2022/05/31 01:14:14;;;;;;;0.35;0.30;;;21.80;52.10;;;;;;4113856;28;20499;-39
2022/05/31 01:16:17;;;;;;;0.38;0.30;;;21.70;52.30;;;;;;4109557;28;20049;-42
2022/05/31 01:18:19;;;;;;;0.30;0.30;;;21.60;52.40;;;;;;4105216;28;20079;-41
2022/05/31 01:20:22;;;;;;;0.55;0.30;;;21.50;52.50;;;;;;4109493;28;20049;-40
2022/05/31 01:22:34;;;;;;;1.45;0.40;;;21.50;52.60;;;;;;4100415;28;20057;-40
2022/05/31 01:24:52;;;;;;;0.38;0.38;;;21.40;52.70;;;;;;4112825;28;20050;-39
2022/05/31 01:27:05;;;;;;;0.35;0.30;;;21.30;52.90;;;;;;4133210;28;20197;-40
2022/05/31 01:29:17;;;;;;;0.73;0.38;;;21.20;53.00;;;;;;4098247;28;20681;-40
2022/05/31 01:31:20;;;;;;;1.00;0.73;;;21.10;53.20;;;;;;4112370;28;20077;-39
2022/05/31 01:33:27;;;;;;;0.93;0.40;;;21.10;53.40;;;;;;4108858;28;20061;-41
2022/05/31 01:35:33;;;;;;;1.85;0.30;;;21.00;53.40;;;;;;4106052;28;20758;-45
2022/05/31 01:37:48;;;;;;;0.30;0.30;;;21.00;53.50;;;;;;4106058;28;20050;-38
2022/05/31 01:39:59;;;;;;;0.38;0.30;;;20.90;53.50;;;;;;4105961;28;20522;-41
2022/05/31 01:42:20;;;;;;;1.05;0.50;;;20.80;53.70;;;;;;4104438;28;20574;-40
2022/05/31 01:44:26;;;;;;;0.43;0.35;;;20.80;53.70;;;;;;4110015;28;20093;-40
2022/05/31 01:46:34;;;;;;;0.30;0.30;;;20.70;53.80;;;;;;4106210;28;20198;-42
2022/05/31 01:48:37;;;;;;;2.38;0.38;;;20.60;54.10;;;;;;4104752;28;20449;-40
2022/05/31 01:50:40;;;;;;;0.60;0.30;;;20.60;54.20;;;;;;4108534;28;20053;-38
2022/05/31 01:52:44;;;;;;;1.30;0.47;;;20.50;54.30;;;;;;4114309;28;20060;-43
2022/05/31 01:54:47;;;;;;;0.47;0.40;;;20.50;54.40;;;;;;4092955;28;20068;-41
2022/05/31 01:56:53;;;;;;;1.15;0.40;;;20.50;54.30;;;;;;4106369;28;20482;-43
2022/05/31 01:58:55;;;;;;;0.35;0.30;;;20.40;54.50;;;;;;4111102;28;20494;-41
2022/05/31 02:00:58;;;;;;;0.90;0.55;;;20.40;54.50;;;;;;4112104;28;20049;-39
2022/05/31 02:03:03;;;;;;;0.32;0.32;;;20.30;54.70;;;;;;4103113;28;20053;-42
2022/05/31 02:05:06;;;;;;;2.50;0.45;;;20.30;54.60;;;;;;4104609;28;20051;-38
2022/05/31 02:07:12;;;;;;;0.30;0.30;;;20.30;54.60;;;;;;4110353;28;20572;-40
2022/05/31 02:09:15;;;;;;;1.27;0.50;;;20.20;54.50;;;;;;4111461;28;20154;-38
2022/05/31 02:11:18;;;;;;;0.63;0.50;;;20.20;54.70;;;;;;4105834;28;20045;-42
2022/05/31 02:13:20;;;;;;;0.93;0.30;;;20.20;54.80;;;;;;4104836;28;20050;-40
2022/05/31 02:15:24;;;;;;;0.40;0.40;;;20.10;54.90;;;;;;4110192;28;20984;-41
2022/05/31 02:17:26;;;;;;;2.42;0.45;;;20.10;54.80;;;;;;4109877;28;20054;-40
2022/05/31 02:19:28;;;;;;;0.35;0.32;;;20.10;54.80;;;;;;4105432;28;20513;-39
2022/05/31 02:21:38;;;;;;;1.30;0.35;;;20.00;54.90;;;;;;4107214;28;20072;-39
2022/05/31 02:23:40;;;;;;;2.03;0.57;;;20.00;55.00;;;;;;4110956;28;20076;-42
2022/05/31 02:25:42;;;;;;;0.55;0.40;;;19.90;55.10;;;;;;4109490;28;20666;-45
2022/05/31 02:27:45;;;;;;;0.40;0.30;;;19.90;55.00;;;;;;4105124;28;20172;-40
2022/05/31 02:29:47;;;;;;;1.52;0.35;;;19.90;54.90;;;;;;4103054;28;20045;-49
2022/05/31 02:31:49;;;;;;;1.23;0.40;;;19.80;54.90;;;;;;4111272;28;20053;-41
2022/05/31 02:33:51;;;;;;;1.25;0.40;;;19.80;54.90;;;;;;4105971;28;20156;-47
2022/05/31 02:35:53;;;;;;;0.40;0.35;;;19.80;54.90;;;;;;4105752;28;20053;-45
2022/05/31 02:37:56;;;;;;;0.40;0.30;;;19.70;54.70;;;;;;4100094;28;20223;-41
2022/05/31 02:39:58;;;;;;;0.30;0.30;;;19.70;54.70;;;;;;4104322;28;20539;-43
2022/05/31 02:42:03;;;;;;;0.30;0.30;;;19.60;54.80;;;;;;4104211;28;20139;-45
2022/05/31 02:44:06;;;;;;;0.30;0.30;;;19.60;54.80;;;;;;4104563;28;20511;-43
2022/05/31 02:46:08;;;;;;;0.32;0.32;;;19.60;54.90;;;;;;4110080;28;20155;-39
2022/05/31 02:48:10;;;;;;;0.65;0.30;;;19.50;54.80;;;;;;4102863;28;20181;-40
2022/05/31 02:50:12;;;;;;;0.50;0.50;;;19.50;54.70;;;;;;4100789;28;20696;-40
2022/05/31 02:52:16;;;;;;;0.55;0.30;;;19.50;54.80;;;;;;4107435;28;20481;-38
2022/05/31 02:54:19;;;;;;;0.55;0.38;;;19.40;54.70;;;;;;4102555;28;20785;-39
2022/05/31 02:56:21;;;;;;;0.60;0.40;;;19.40;54.70;;;;;;4101079;28;20514;-39
2022/05/31 02:58:25;;;;;;;0.45;0.40;;;19.40;54.90;;;;;;4105384;28;20153;-40
2022/05/31 03:00:27;;;;;;;1.55;0.50;;;19.30;55.20;;;;;;4108627;28;20456;-41
2022/05/31 03:02:29;;;;;;;0.30;0.30;;;19.30;55.40;;;;;;4101747;28;20108;-39
2022/05/31 03:04:32;;;;;;;0.50;0.40;;;19.30;55.80;;;;;;4100038;28;20566;-39
2022/05/31 03:06:35;;;;;;;0.40;0.40;;;19.30;56.00;;;;;;4109249;28;20049;-38
2022/05/31 03:08:37;;;;;;;1.65;0.40;;;19.30;56.10;;;;;;4108644;28;21134;-45
2022/05/31 03:10:44;;;;;;;1.17;0.68;;;19.30;56.10;;;;;;4104866;28;20472;-38
2022/05/31 03:12:49;;;;;;;2.58;0.55;;;19.20;56.00;;;;;;4108604;28;20061;-40
2022/05/31 03:15:00;;;;;;;4.03;0.90;;;19.30;56.10;;;;;;4113821;28;20057;-40
2022/05/31 03:17:10;;;;;;;1.35;0.60;;;19.30;56.10;;;;;;4112618;28;20122;-39
2022/05/31 03:19:20;;;;;;;1.40;0.45;;;19.30;56.10;;;;;;4113735;28;20057;-38
2022/05/31 03:21:26;;;;;;;2.20;0.40;;;19.30;56.20;;;;;;4114035;28;20053;-42
2022/05/31 03:23:42;;;;;;;1.63;0.55;;;19.30;56.20;;;;;;4108058;28;21039;-43
2022/05/31 03:25:46;;;;;;;0.82;0.30;;;19.30;56.10;;;;;;4112335;28;21341;-42
2022/05/31 03:27:50;;;;;;;0.40;0.40;;;19.30;56.20;;;;;;4106543;28;20700;-42
2022/05/31 03:29:53;;;;;;;0.95;0.70;;;19.30;56.20;;;;;;4106066;28;20061;-40
2022/05/31 03:31:56;;;;;;;0.68;0.50;;;19.30;56.20;;;;;;4111515;28;20162;-41
2022/05/31 03:33:59;;;;;;;0.30;0.30;;;19.30;56.20;;;;;;4110881;28;20385;-39
2022/05/31 03:36:01;;;;;;;0.85;0.65;;;19.40;56.20;;;;;;4104839;28;20176;-39
2022/05/31 03:38:04;;;;;;;0.30;0.30;;;19.40;56.00;;;;;;4108048;28;20092;-38
2022/05/31 03:40:06;;;;;;;0.82;0.50;;;19.40;56.10;;;;;;4114749;28;20061;-42
2022/05/31 03:42:08;;;;;;;0.82;0.40;;;19.40;56.10;;;;;;4105065;28;20053;-39
2022/05/31 03:44:10;;;;;;;0.65;0.55;;;19.40;56.10;;;;;;4107036;28;20136;-38
2022/05/31 03:46:14;;;;;;;1.85;0.57;;;19.40;56.20;;;;;;4112856;28;20068;-41
2022/05/31 03:48:17;;;;;;;0.25;0.25;;;19.40;56.10;;;;;;4106629;28;20146;-42
2022/05/31 03:50:19;;;;;;;1.98;0.50;;;19.40;56.10;;;;;;4107603;28;20152;-39
2022/05/31 03:52:21;;;;;;;0.47;0.47;;;19.40;56.00;;;;;;4109056;28;20053;-42
2022/05/31 03:54:24;;;;;;;0.43;0.40;;;19.50;56.20;;;;;;4112724;28;20061;-42
2022/05/31 03:56:26;;;;;;;0.40;0.40;;;19.50;56.00;;;;;;4105402;28;20156;-42
2022/05/31 03:58:28;;;;;;;0.38;0.32;;;19.50;56.00;;;;;;4107975;28;20555;-42
2022/05/31 04:00:30;;;;;;;0.43;0.30;;;19.50;55.80;;;;;;4101980;28;20116;-41
2022/05/31 04:02:33;;;;;;;0.40;0.40;;;19.60;55.80;;;;;;4093794;28;20128;-40
2022/05/31 04:04:36;;;;;;;0.47;0.40;;;19.50;55.80;;;;;;4106186;28;20057;-40
2022/05/31 04:06:38;;;;;;;1.27;0.40;;;19.60;55.70;;;;;;4114277;28;20499;-42
2022/05/31 04:08:40;;;;;;;0.30;0.30;;;19.60;55.70;;;;;;4108912;28;20050;-41
2022/05/31 04:10:44;;;;;;;0.30;0.30;;;19.60;55.50;;;;;;4105851;28;20136;-41
2022/05/31 04:12:46;;;;;;;0.30;0.30;;;19.60;55.50;;;;;;4107647;28;20766;-42
2022/05/31 04:14:48;;;;;;;0.43;0.40;;;19.70;55.60;;;;;;4114234;28;20487;-40
2022/05/31 04:16:50;;;;;;;0.30;0.30;;;19.70;55.40;;;;;;4105193;28;20077;-39
2022/05/31 04:18:53;;;;;;;1.70;0.50;;;19.70;55.40;;;;;;4105242;28;20062;-40
2022/05/31 04:21:01;;;;;;;0.35;0.32;;;19.70;55.40;;;;;;4114022;28;21248;-40
2022/05/31 04:25:24;;;;;;;0.98;0.55;;;19.70;55.30;;;;;;4109795;28;20466;-39
2022/05/31 04:27:26;;;;;;;0.77;0.55;;;19.80;56.00;;;;;;4083911;28;20893;-40
2022/05/31 04:29:28;;;;;;;2.22;0.40;;;19.70;56.10;;;;;;4105061;28;20080;-42
2022/05/31 04:31:30;;;;;;;0.90;0.40;;;19.70;55.40;;;;;;4105166;28;20046;-39
2022/05/31 04:33:32;;;;;;;2.30;0.40;;;19.70;55.50;;;;;;4108329;28;20049;-40
2022/05/31 04:35:34;;;;;;;3.30;0.30;;;19.70;55.40;;;;;;4100043;28;20069;-39
2022/05/31 04:37:36;;;;;;;0.98;0.25;;;19.70;55.30;;;;;;4101756;28;20092;-39
2022/05/31 04:39:39;;;;;;;3.22;0.52;;;19.70;55.20;;;;;;4110063;28;20061;-40
2022/05/31 04:41:41;;;;;;;0.30;0.30;;;19.70;55.20;;;;;;4102302;28;21689;-42
2022/05/31 04:43:43;;;;;;;0.30;0.30;;;19.80;55.00;;;;;;4103766;28;20143;-41
2022/05/31 04:45:46;;;;;;;0.38;0.38;;;19.80;54.90;;;;;;4110140;28;21042;-40
2022/05/31 04:47:48;;;;;;;0.40;0.40;;;19.80;55.00;;;;;;4093421;28;20514;-40
2022/05/31 04:49:50;;;;;;;0.75;0.40;;;19.80;54.90;;;;;;4103025;28;20053;-48
2022/05/31 04:51:52;;;;;;;0.88;0.40;;;19.70;54.90;;;;;;4105362;28;20115;-40
2022/05/31 04:53:55;;;;;;;0.60;0.40;;;19.80;55.10;;;;;;4109520;28;20077;-39
2022/05/31 04:56:09;;;;;;;2.00;0.50;;;19.70;55.00;;;;;;4104162;28;20049;-39
2022/05/31 04:58:11;;;;;;;0.40;0.40;;;19.70;54.60;;;;;;4102146;28;20611;-39
2022/05/31 05:00:14;;;;;;;0.50;0.43;;;19.60;53.10;;;;;;4103703;28;21371;-41
2022/05/31 05:02:16;;;;;;;0.52;0.47;;;19.60;52.80;;;;;;4113830;28;20065;-40
2022/05/31 05:04:18;;;;;;;1.80;0.40;;;19.50;52.20;;;;;;4103532;28;20843;-44
2022/05/31 05:06:22;;;;;;;1.88;0.50;;;19.70;51.30;;;;;;4101650;28;20201;-41
2022/05/31 05:08:23;;;;;;;;;;;20.00;50.30;;;;;;4103226;28;20061;-40
2022/05/31 05:10:26;;;;;;;1.27;0.60;;;20.20;49.80;;;;;;4106792;28;20907;-45
2022/05/31 05:12:28;;;;;;;1.05;0.52;;;20.50;49.00;;;;;;4101643;28;20084;-40
2022/05/31 05:14:31;;;;;;;1.58;0.50;;;20.70;48.50;;;;;;4086666;28;20522;-39
2022/05/31 05:16:33;;;;;;;1.80;0.90;;;20.90;48.00;;;;;;4108644;28;20352;-39
2022/05/31 05:18:35;;;;;;;6.22;1.08;;;21.10;47.70;;;;;;4101396;28;20065;-39
2022/05/31 05:20:39;;;;;;;1.48;0.40;;;21.20;47.20;;;;;;4101664;28;20140;-38
2022/05/31 05:22:41;;;;;;;2.08;0.60;;;21.30;46.90;;;;;;4105402;28;20604;-41
2022/05/31 05:24:43;;;;;;;1.85;0.80;;;21.40;46.70;;;;;;4104627;28;20659;-40
2022/05/31 05:26:46;;;;;;;7.35;0.63;;;21.60;47.20;;;;;;4103857;28;20361;-44
2022/05/31 05:31:24;;;;;;;1.50;0.47;;;22.50;46.90;;;;;;4105743;28;20057;-41
2022/05/31 05:33:27;;;;;;;1.27;0.70;;;23.00;46.60;;;;;;4101358;28;20612;-40
2022/05/31 05:35:29;;;;;;;6.40;0.98;;;23.40;46.00;;;;;;4101187;28;20622;-38
2022/05/31 05:37:31;;;;;;;1.63;0.60;;;23.70;45.80;;;;;;4107697;28;20103;-39
2022/05/31 05:39:33;;;;;;;2.08;0.65;;;24.00;45.40;;;;;;4103087;28;21069;-40
2022/05/31 05:41:35;;;;;;;1.00;0.38;;;24.20;45.10;;;;;;4099721;28;20578;-39
2022/05/31 05:43:40;;;;;;;1.08;0.45;;;24.40;44.80;;;;;;4105856;28;20231;-41
2022/05/31 05:45:42;;;;;;;1.55;0.43;;;24.70;44.60;;;;;;4107995;28;20053;-43
2022/05/31 05:47:44;;;;;;;0.85;0.35;;;24.80;44.10;;;;;;4101781;28;20057;-41
2022/05/31 05:49:46;;;;;;;1.05;0.65;;;25.10;44.00;;;;;;4102947;28;20045;-41
2022/05/31 05:51:52;;;;;;;1.98;0.60;;;25.30;43.80;;;;;;4107788;28;20153;-44
2022/05/31 05:53:55;;;;;;;1.15;0.60;;;25.50;43.60;;;;;;4106404;28;20053;-40
2022/05/31 05:55:57;;;;;;;1.52;0.40;;;25.70;43.40;;;;;;4101293;28;20064;-39
2022/05/31 05:58:00;;;;;;;1.65;0.55;;;25.80;43.10;;;;;;4103016;28;20068;-40
2022/05/31 06:00:02;;;;;;;0.95;0.57;;;26.00;42.90;;;;;;4114389;28;20151;-41
2022/05/31 06:02:11;;;;;;;1.13;0.50;;;26.20;42.80;;;;;;4107985;28;20478;-41
2022/05/31 06:04:21;;;;;;;2.47;0.73;;;26.30;42.60;;;;;;4107699;28;20200;-44
2022/05/31 06:06:28;;;;;;;2.38;0.57;;;26.50;42.50;;;;;;4108642;28;20108;-43
2022/05/31 06:08:45;;;;;;;0.88;0.47;;;26.50;42.80;;;;;;4106990;28;20335;-42
2022/05/31 06:10:56;;;;;;;1.85;0.70;;;26.20;43.30;;;;;;4106626;28;20049;-44
2022/05/31 06:13:15;;;;;;;2.58;0.77;;;25.80;43.80;;;;;;4105148;28;20126;-41
2022/05/31 06:15:25;;;;;;;2.53;0.50;;;25.40;44.90;;;;;;4105638;28;20053;-46
2022/05/31 06:17:35;;;;;;;2.60;0.80;;;25.00;44.70;;;;;;4104840;28;20053;-43
2022/05/31 06:19:39;;;;;;;1.13;0.65;;;24.70;45.20;;;;;;4107077;28;20112;-42
2022/05/31 06:21:43;;;;;;;1.40;0.40;;;24.50;45.40;;;;;;4106088;28;20052;-41
2022/05/31 06:23:45;;;;;;;0.85;0.50;;;24.20;45.70;;;;;;4111850;28;20057;-41
2022/05/31 06:25:48;;;;;;;2.58;0.57;;;24.00;46.10;;;;;;4094567;28;20159;-43
2022/05/31 06:27:51;;;;;;;4.65;0.73;;;23.90;46.20;;;;;;4096783;28;20121;-40
2022/05/31 06:29:53;;;;;;;2.45;0.73;;;23.70;46.50;;;;;;4127771;28;20053;-40
2022/05/31 06:31:55;;;;;;;0.73;0.40;;;23.60;46.70;;;;;;4108975;28;20061;-39
2022/05/31 06:33:57;;;;;;;6.95;0.55;;;23.40;46.80;;;;;;4102301;28;20746;-41
2022/05/31 06:36:02;;;;;;;1.90;0.60;;;23.30;46.90;;;;;;4104116;28;20112;-42
2022/05/31 06:38:05;;;;;;;0.57;0.55;;;23.20;47.00;;;;;;4112389;28;20053;-39
2022/05/31 06:40:08;;;;;;;2.53;1.17;;;23.10;47.10;;;;;;4104098;28;20572;-40
2022/05/31 06:42:12;;;;;;;2.15;1.55;;;23.00;47.40;;;;;;4091054;28;20104;-42
2022/05/31 06:44:14;;;;;;;3.17;2.17;;;22.90;47.60;;;;;;4105782;28;20454;-40
2022/05/31 06:46:16;;;;;;;3.30;2.33;;;22.70;47.70;;;;;;4114134;28;20173;-43
2022/05/31 06:48:18;;;;;;;5.53;3.38;;;22.60;47.90;;;;;;4107740;28;20546;-40
2022/05/31 06:50:20;;;;;;;7.05;3.13;;;22.60;48.00;;;;;;4107028;28;20045;-42
2022/05/31 06:57:04;;;;;;;3.88;2.92;;;22.20;48.60;;;;;;4105676;28;20057;-40
2022/05/31 06:59:06;;;;;;;4.80;3.30;;;22.10;48.60;;;;;;4103242;28;20504;-42
2022/05/31 07:01:09;;;;;;;6.40;3.13;;;22.00;48.70;;;;;;4104533;28;20302;-44
2022/05/31 07:03:11;;;;;;;4.15;3.17;;;21.90;48.90;;;;;;4097719;28;20057;-43
2022/05/31 07:05:14;;;;;;;4.65;3.28;;;21.90;49.30;;;;;;4097480;28;21147;-42
2022/05/31 07:07:16;;;;;;;4.88;3.40;;;21.80;50.10;;;;;;4106667;28;20089;-42
2022/05/31 07:09:21;;;;;;;5.78;3.30;;;21.70;49.50;;;;;;4086924;28;20809;-40
2022/05/31 07:11:23;;;;;;;4.65;3.17;;;21.60;49.70;;;;;;4098708;28;20321;-42
2022/05/31 07:13:25;;;;;;;3.53;3.10;;;21.60;49.90;;;;;;4098669;28;20046;-39
2022/05/31 07:15:28;;;;;;;4.57;2.78;;;21.50;50.10;;;;;;4104047;28;20053;-39
2022/05/31 07:17:30;;;;;;;3.80;2.73;;;21.50;50.20;;;;;;4100282;28;20446;-41
2022/05/31 07:19:32;;;;;;;4.00;2.58;;;21.40;50.30;;;;;;4104050;28;20144;-41
2022/05/31 07:21:34;;;;;;;7.97;3.00;;;21.30;50.60;;;;;;4110080;28;20064;-38
2022/05/31 07:23:38;;;;;;;3.55;2.60;;;21.30;50.70;;;;;;4100950;28;20747;-42
2022/05/31 07:25:40;;;;;;;4.25;2.08;;;21.20;50.80;;;;;;4103090;28;20521;-42
2022/05/31 07:27:42;;;;;;;3.95;2.50;;;21.20;51.00;;;;;;4105384;28;20061;-40
2022/05/31 07:29:44;;;;;;;3.72;2.28;;;21.10;51.10;;;;;;4107631;28;20838;-43
2022/05/31 07:31:46;;;;;;;4.72;2.10;;;21.10;51.30;;;;;;4101091;28;20454;-45
2022/05/31 07:33:49;;;;;;;3.92;2.20;;;21.00;51.40;;;;;;4103867;28;20059;-39
2022/05/31 07:35:51;;;;;;;3.10;1.95;;;21.00;51.70;;;;;;4108708;28;20660;-39
2022/05/31 07:37:53;;;;;;;3.72;1.90;;;21.00;51.70;;;;;;4101242;28;20427;-40
2022/05/31 07:39:55;;;;;;;3.70;1.60;;;20.90;51.90;;;;;;4101206;28;20053;-42
2022/05/31 07:41:58;;;;;;;2.50;1.60;;;20.90;51.80;;;;;;4105690;28;20053;-41
2022/05/31 07:44:00;;;;;;;;;;;20.80;52.00;;;;;;4102823;28;20512;-41
2022/05/31 07:46:10;;;;;;;2.28;1.73;;;20.80;52.00;;;;;;4099472;28;20368;-43
2022/05/31 07:48:12;;;;;;;2.88;1.60;;;20.70;52.00;;;;;;4106735;28;20049;-40
2022/05/31 07:50:14;;;;;;;2.92;1.73;;;20.70;52.10;;;;;;4108231;28;20059;-40
2022/05/31 07:52:18;;;;;;;1.73;1.30;;;20.60;52.20;;;;;;4101599;28;20057;-43
2022/05/31 07:54:20;;;;;;;2.13;1.50;;;20.60;52.30;;;;;;4101240;28;20108;-40
2022/05/31 07:56:22;;;;;;;2.13;1.27;;;20.60;52.60;;;;;;4106385;28;20626;-40
2022/05/31 07:58:31;;;;;;;1.57;1.13;;;20.50;52.80;;;;;;4109042;28;20421;-39
2022/05/31 08:00:33;;;;;;;2.33;1.40;;;20.50;52.80;;;;;;4102025;28;20306;-38
2022/05/31 08:02:35;;;;;;;3.35;1.50;;;20.40;52.90;;;;;;4100383;28;20630;-41
2022/05/31 08:04:37;;;;;;;2.30;1.38;;;20.40;53.00;;;;;;4103056;28;20054;-38
2022/05/31 08:06:39;;;;;;;2.60;1.13;;;20.30;53.20;;;;;;4104374;28;21008;-43
2022/05/31 08:08:42;;;;;;;1.52;1.08;;;20.30;53.20;;;;;;4099983;28;20057;-40
2022/05/31 08:10:44;;;;;;;2.17;1.30;;;20.30;53.30;;;;;;4101720;28;20180;-41
2022/05/31 08:12:46;;;;;;;3.72;1.10;;;20.30;53.50;;;;;;4109761;28;20534;-45
2022/05/31 08:14:48;;;;;;;1.67;1.08;;;20.30;53.70;;;;;;4102531;28;20111;-42
2022/05/31 08:16:52;;;;;;;1.40;0.90;;;20.20;53.70;;;;;;4102450;28;20058;-45
2022/05/31 08:18:55;;;;;;;1.27;1.10;;;20.20;53.80;;;;;;4108496;28;20136;-41
2022/05/31 08:21:09;;;;;;;3.63;1.10;;;20.20;53.90;;;;;;4110340;28;21271;-41
2022/05/31 08:23:11;;;;;;;2.63;1.02;;;20.20;53.90;;;;;;4106840;28;20187;-42
2022/05/31 08:25:14;;;;;;;4.35;1.20;;;20.10;53.90;;;;;;4102157;28;20829;-40
2022/05/31 08:27:16;;;;;;;2.92;1.02;;;20.10;54.00;;;;;;4105076;28;20180;-38
2022/05/31 08:29:18;;;;;;;2.10;1.05;;;20.00;54.00;;;;;;4095508;28;20042;-37
2022/05/31 08:31:34;;;;;;;5.45;1.60;;;20.00;52.70;;;;;;4103764;28;22073;-41
2022/05/31 08:33:36;;;;;;;3.25;1.20;;;20.00;52.50;;;;;;4094129;28;20181;-41
2022/05/31 08:35:39;;;;;;;1.40;1.17;;;19.90;52.60;;;;;;4104038;28;20049;-39
2022/05/31 08:37:41;;;;;;;2.63;1.30;;;19.80;52.90;;;;;;4108141;28;20053;-40
2022/05/31 08:39:43;;;;;;;3.15;1.30;;;19.80;53.40;;;;;;4113172;28;20064;-39
2022/05/31 08:41:48;;;;;;;1.75;1.17;;;19.70;53.40;;;;;;4085114;28;20078;-43
2022/05/31 08:43:50;;;;;;;2.58;1.10;;;19.70;52.60;;;;;;4096308;28;20057;-42
2022/05/31 08:45:53;;;;;;;1.63;1.08;;;19.60;52.10;;;;;;4101761;28;20505;-42
2022/05/31 08:48:09;;;;;;;1.27;1.02;;;19.50;51.90;;;;;;4100926;28;21023;-40
2022/05/31 08:53:22;;;;;;;1.65;1.10;;;19.40;52.00;;;;;;4101572;28;20058;-42
2022/05/31 08:57:58;;;;;;;1.65;1.23;;;19.20;51.90;;;;;;4104129;28;20456;-42
2022/05/31 09:00:07;;;;;;;1.90;1.13;;;19.10;52.00;;;;;;4095299;28;20836;-40
2022/05/31 09:02:47;;;;;;;2.13;1.10;;;19.10;52.00;;;;;;4102931;28;20110;-44
2022/05/31 09:04:59;;;;;;;1.60;1.05;;;19.00;52.10;;;;;;4120349;28;20064;-40
2022/05/31 09:07:30;;;;;;;1.00;0.88;;;19.00;52.00;;;;;;4103096;28;20319;-39
2022/05/31 09:09:53;;;;;;;1.75;1.10;;;18.90;52.20;;;;;;4110425;28;20418;-41
2022/05/31 09:12:12;;;;;;;1.00;0.90;;;18.80;52.10;;;;;;4103382;28;20049;-40
2022/05/31 09:14:28;;;;;;;2.33;1.02;;;18.70;52.30;;;;;;4102024;28;20053;-42
2022/05/31 09:16:45;;;;;;;1.40;0.98;;;18.70;52.30;;;;;;4100634;28;20100;-39
2022/05/31 09:19:00;;;;;;;1.50;1.10;;;18.60;52.60;;;;;;4108726;28;20707;-39
2022/05/31 09:21:08;;;;;;;2.03;1.13;;;18.60;52.70;;;;;;4111736;28;20879;-39
2022/05/31 09:23:39;;;;;;;2.08;1.27;;;18.60;52.70;;;;;;4128320;28;21016;-39
2022/05/31 09:25:42;;;;;;;1.35;1.02;;;18.50;53.10;;;;;;4106105;28;20111;-39
2022/05/31 09:27:48;;;;;;;1.52;1.08;;;18.50;53.20;;;;;;4109926;28;20068;-38
2022/05/31 09:30:11;;;;;;;1.83;1.48;;;18.50;53.20;;;;;;4113783;28;20065;-39
2022/05/31 09:32:57;;;;;;;1.42;1.00;;;18.40;54.10;;;;;;4105868;28;20621;-40
2022/05/31 09:35:31;;;;;;;1.60;1.20;;;18.40;53.80;;;;;;4105995;28;20065;-40
2022/05/31 09:37:48;;;;;;;1.23;1.10;;;18.30;53.70;;;;;;4081387;28;20049;-38
2022/05/31 09:40:18;;;;;;;1.63;1.20;;;18.30;53.70;;;;;;4112889;28;20162;-38
2022/05/31 09:42:30;;;;;;;2.70;1.63;;;18.20;53.80;;;;;;4107526;28;20422;-39
2022/05/31 09:44:42;;;;;;;2.90;1.50;;;18.20;53.80;;;;;;4105465;28;20306;-40
2022/05/31 09:46:59;;;;;;;2.85;1.67;;;18.20;54.00;;;;;;4106565;28;20425;-41
2022/05/31 09:49:09;;;;;;;3.45;1.20;;;18.10;54.10;;;;;;4109154;28;20064;-39
2022/05/31 09:51:41;;;;;;;1.92;1.52;;;18.10;53.90;;;;;;4106552;28;20451;-41
2022/05/31 09:58:36;;;;;;;2.63;1.73;;;18.00;54.20;;;;;;4113330;28;20049;-38
2022/05/31 10:00:58;;;;;;;2.58;1.80;;;18.00;54.40;;;;;;4110392;28;20565;-39
2022/05/31 10:03:13;;;;;;;2.92;1.90;;;17.90;54.30;;;;;;4111571;28;20143;-39
2022/05/31 10:05:21;;;;;;;2.33;1.60;;;17.90;53.90;;;;;;4106196;28;20446;-39
2022/05/31 10:07:36;;;;;;;2.92;1.63;;;17.90;54.30;;;;;;4107393;28;20160;-40
2022/05/31 10:09:44;;;;;;;3.22;1.38;;;17.90;54.30;;;;;;4106533;28;20054;-40
2022/05/31 10:11:49;;;;;;;2.63;1.75;;;17.80;54.70;;;;;;4112324;28;20466;-39
2022/05/31 10:14:07;;;;;;;3.15;2.15;;;17.80;54.70;;;;;;4111312;28;20056;-40
2022/05/31 10:16:23;;;;;;;3.55;2.10;;;17.80;54.80;;;;;;4095156;28;20707;-38
2022/05/31 10:18:31;;;;;;;2.83;2.10;;;17.80;54.90;;;;;;4107299;28;21110;-38
2022/05/31 10:20:34;;;;;;;2.53;1.80;;;17.70;54.80;;;;;;4113426;28;20173;-38
2022/05/31 10:22:37;;;;;;;3.28;2.30;;;17.70;54.70;;;;;;4105806;28;20222;-43
2022/05/31 10:24:39;;;;;;;2.55;1.75;;;17.70;54.40;;;;;;4103444;28;20135;-40
2022/05/31 10:26:42;;;;;;;3.15;1.70;;;17.70;54.70;;;;;;4111233;28;20422;-40
2022/05/31 10:29:01;;;;;;;2.28;1.50;;;17.70;54.30;;;;;;4112992;28;21287;-39
2022/05/31 10:31:39;;;;;;;3.33;1.95;;;17.70;54.70;;;;;;4114101;28;20049;-39
2022/05/31 10:33:52;;;;;;;2.63;1.70;;;17.70;54.30;;;;;;4111896;28;20053;-39
2022/05/31 10:36:17;;;;;;;3.83;1.70;;;17.70;54.60;;;;;;4113536;28;20065;-40
2022/05/31 10:38:22;;;;;;;3.97;1.77;;;18.10;54.70;;;;;;4106505;28;20559;-39
2022/05/31 10:40:37;;;;;;;1.73;1.30;;;18.60;53.80;;;;;;4102277;28;20057;-38
2022/05/31 10:42:45;;;;;;;4.00;1.40;;;18.60;53.60;;;;;;4110787;28;20057;-39
2022/05/31 10:44:52;;;;;;;1.80;1.20;;;18.60;53.80;;;;;;4116483;28;20077;-39
2022/05/31 10:47:06;;;;;;;2.63;1.23;;;18.50;53.90;;;;;;4111055;28;20067;-39
2022/05/31 10:49:21;;;;;;;2.65;1.15;;;18.50;54.20;;;;;;4113994;28;20123;-42
2022/05/31 10:51:56;;;;;;;1.63;1.33;;;18.40;54.40;;;;;;4113242;28;20053;-39
2022/05/31 10:54:12;;;;;;;3.35;1.55;;;18.40;54.70;;;;;;4048274;28;20099;-37
2022/05/31 10:56:36;;;;;;;5.20;1.75;;;18.40;55.10;;;;;;4111771;28;20780;-38
2022/05/31 10:58:53;;;;;;;5.78;1.90;;;18.30;55.10;;;;;;4110187;28;21122;-37
2022/05/31 11:01:00;;;;;;;3.15;1.42;;;18.30;55.90;;;;;;4102773;28;20506;-40
2022/05/31 11:03:14;;;;;;;4.53;1.60;;;18.30;56.30;;;;;;4108982;28;20557;-38
2022/05/31 11:05:19;;;;;;;4.15;1.88;;;18.30;56.70;;;;;;4103967;28;20481;-49
2022/05/31 11:12:51;;;;;;;2.50;1.10;;;18.30;57.00;;;;;;4109215;28;20079;-38
2022/05/31 11:15:17;;;;;;;2.63;1.20;;;18.30;57.00;;;;;;4106790;28;20597;-41
2022/05/31 11:17:32;;;;;;;1.35;0.90;;;18.30;57.10;;;;;;4113714;28;20501;-39
2022/05/31 11:19:58;;;;;;;2.20;0.95;;;18.30;57.00;;;;;;4110640;28;20057;-42
2022/05/31 11:22:28;;;;;;;3.97;1.33;;;18.30;57.10;;;;;;4106340;28;20057;-39
2022/05/31 11:25:07;;;;;;;1.80;1.00;;;18.30;57.20;;;;;;4085436;28;20053;-39